Time;durP1;ratioP1;P1;durP2;ratioP2;P2;SDS_P1;SDS_P2;PMS_P1;PMS_P2;Temp;Humidity;BMP_temperature;BMP_pressure;BME280_temperature;BME280_humidity;BME280_pressure;Samples;Min_cycle;Max_cycle;Signal;HPM_P1;HPM_P2
2022/09/10 10:37:08;;;;;;;6.53;2.90;;;20.40;93.30;;;;;;1502333;26;20041;-67
2022/09/10 10:40:13;;;;;;;6.47;2.78;;;20.80;93.20;;;;;;5061752;28;20024;-53
2022/09/10 10:43:08;;;;;;;5.70;3.03;;;20.90;92.40;;;;;;5059223;28;20386;-49
2022/09/10 10:46:09;;;;;;;6.85;2.50;;;21.10;92.40;;;;;;5054815;28;20025;-56
2022/09/10 10:49:07;;;;;;;4.70;2.22;;;21.30;92.20;;;;;;5041585;28;20041;-51
2022/09/10 10:51:59;;;;;;;4.50;2.40;;;21.20;91.30;;;;;;5048473;28;20079;-54
2022/09/10 10:55:13;;;;;;;4.53;2.47;;;21.30;92.00;;;;;;5050406;28;20424;-55
2022/09/10 10:58:02;;;;;;;6.45;2.55;;;21.60;91.40;;;;;;5050348;28;20017;-52
2022/09/10 11:01:16;;;;;;;6.82;2.50;;;21.60;90.50;;;;;;5051650;28;21448;-53
2022/09/10 11:04:17;;;;;;;6.20;2.75;;;21.40;90.90;;;;;;5047696;28;20052;-54
2022/09/10 11:07:13;;;;;;;4.45;2.38;;;21.20;91.40;;;;;;5041810;28;20033;-50
2022/09/10 11:10:14;;;;;;;2.92;2.30;;;21.10;91.50;;;;;;5043192;28;20022;-55
2022/09/10 11:13:15;;;;;;;5.30;2.40;;;21.20;91.50;;;;;;5040236;28;20032;-49
2022/09/10 11:16:23;;;;;;;5.30;2.47;;;21.00;91.90;;;;;;5049333;28;20029;-55
2022/09/10 11:19:37;;;;;;;4.97;2.80;;;21.00;92.20;;;;;;5056539;28;20024;-52
2022/09/10 11:22:29;;;;;;;4.90;2.47;;;20.70;92.50;;;;;;5068814;28;20082;-49
2022/09/10 11:25:22;;;;;;;4.80;2.40;;;20.70;92.60;;;;;;5069325;28;20044;-56
2022/09/10 11:28:13;;;;;;;5.75;3.17;;;20.80;92.60;;;;;;5069368;28;20021;-50
2022/09/10 11:31:28;;;;;;;5.82;3.10;;;21.10;92.60;;;;;;5068925;28;20039;-55
2022/09/10 11:34:31;;;;;;;3.15;2.35;;;21.30;91.80;;;;;;5045431;28;20040;-53
2022/09/10 11:37:31;;;;;;;3.17;2.40;;;21.50;91.30;;;;;;5046284;28;20038;-50
2022/09/10 11:40:34;;;;;;;5.22;2.60;;;21.50;91.20;;;;;;5046768;28;20025;-53
2022/09/10 11:43:48;;;;;;;6.57;2.85;;;21.40;91.20;;;;;;5040907;28;20024;-54
2022/09/10 11:46:57;;;;;;;6.20;3.00;;;21.20;91.70;;;;;;5044345;28;20045;-56
2022/09/10 11:49:52;;;;;;;4.72;2.90;;;20.90;92.20;;;;;;5045295;28;20044;-53
2022/09/10 11:52:39;;;;;;;4.45;2.97;;;20.60;92.90;;;;;;5041287;28;20030;-48
2022/09/10 11:56:08;;;;;;;4.95;2.80;;;20.50;93.30;;;;;;5046085;28;20493;-51
2022/09/10 11:59:07;;;;;;;4.32;2.80;;;20.40;93.50;;;;;;4955800;28;20047;-51
2022/09/10 12:02:02;;;;;;;6.28;2.60;;;20.20;95.00;;;;;;4987728;28;20018;-59
2022/09/10 12:04:48;;;;;;;;;;;20.00;94.70;;;;;;5032052;28;20021;-58
2022/09/10 12:07:49;;;;;;;3.92;2.80;;;19.80;96.10;;;;;;5031148;28;19912;-60
2022/09/10 12:10:41;;;;;;;6.90;3.70;;;19.80;96.00;;;;;;5029995;28;20560;-59
2022/09/10 12:13:27;;;;;;;6.75;4.35;;;19.90;96.10;;;;;;5029922;28;20545;-56
2022/09/10 12:16:28;;;;;;;5.55;3.22;;;20.10;96.20;;;;;;5031334;28;20112;-57
2022/09/10 12:19:37;;;;;;;8.32;3.50;;;20.50;95.90;;;;;;5022353;28;20044;-55
2022/09/10 12:22:33;;;;;;;5.93;3.30;;;21.10;95.60;;;;;;5051717;28;20021;-54
2022/09/10 12:25:22;;;;;;;5.32;2.40;;;21.10;96.00;;;;;;5042882;28;20075;-53
2022/09/10 12:28:40;;;;;;;3.92;2.60;;;21.00;95.20;;;;;;5043136;28;20021;-54
2022/09/10 12:31:27;;;;;;;5.50;2.42;;;20.90;94.40;;;;;;5043884;28;20026;-52
2022/09/10 12:34:17;;;;;;;8.35;2.63;;;20.80;94.20;;;;;;5042424;28;20044;-50
2022/09/10 12:37:03;;;;;;;3.88;2.25;;;20.80;94.30;;;;;;5047739;28;20409;-51
2022/09/10 12:40:24;;;;;;;3.50;2.45;;;20.70;94.10;;;;;;5043264;28;20025;-55
2022/09/10 12:43:42;;;;;;;3.53;2.30;;;20.80;94.50;;;;;;5046133;28;20032;-52
2022/09/10 12:46:30;;;;;;;4.38;2.53;;;21.20;93.60;;;;;;5000892;28;20040;-55
2022/09/10 12:49:16;;;;;;;5.38;2.40;;;21.60;92.90;;;;;;5026128;28;20087;-53
2022/09/10 12:52:05;;;;;;;2.50;2.03;;;21.90;92.20;;;;;;5051757;28;20029;-55
2022/09/10 12:54:51;;;;;;;3.50;2.40;;;22.00;91.40;;;;;;5045294;28;20024;-56
2022/09/10 12:57:52;;;;;;;3.38;1.95;;;22.10;92.20;;;;;;5048560;28;20574;-54
2022/09/10 13:00:53;;;;;;;3.78;2.45;;;21.90;91.70;;;;;;5047121;28;20029;-50
2022/09/10 13:03:53;;;;;;;3.63;2.22;;;21.60;91.50;;;;;;5040720;28;20079;-51
2022/09/10 13:06:41;;;;;;;3.70;2.13;;;21.50;92.00;;;;;;5042132;28;20473;-52
2022/09/10 13:09:35;;;;;;;4.88;2.40;;;21.50;92.00;;;;;;5052834;28;20148;-50
2022/09/10 13:12:23;;;;;;;4.50;2.30;;;21.60;92.00;;;;;;5052034;28;20029;-53
2022/09/10 13:15:18;;;;;;;2.38;2.10;;;21.60;90.90;;;;;;5034689;28;20112;-53
2022/09/10 13:18:25;;;;;;;5.60;2.47;;;21.60;90.00;;;;;;5017982;28;20040;-53
2022/09/10 13:21:22;;;;;;;3.67;2.40;;;21.60;89.90;;;;;;5032143;28;20021;-54
2022/09/10 13:24:34;;;;;;;3.03;2.00;;;21.50;88.60;;;;;;5037875;28;20025;-53
2022/09/10 13:27:38;;;;;;;2.13;1.85;;;21.50;88.40;;;;;;5071171;28;20020;-55
2022/09/10 13:30:25;;;;;;;4.03;2.20;;;21.60;89.30;;;;;;5071039;28;20055;-53
2022/09/10 13:33:13;;;;;;;4.30;2.97;;;21.70;88.40;;;;;;5071821;28;20032;-54
2022/09/10 13:36:09;;;;;;;3.20;2.40;;;21.50;88.90;;;;;;5056534;28;20024;-54
2022/09/10 13:39:14;;;;;;;3.75;2.17;;;21.60;88.00;;;;;;5046872;28;20099;-57
2022/09/10 13:42:09;;;;;;;5.68;2.10;;;21.60;88.90;;;;;;5030705;28;20025;-55
2022/09/10 13:45:21;;;;;;;4.22;2.05;;;21.60;88.50;;;;;;5045111;28;20064;-53
2022/09/10 13:48:23;;;;;;;4.57;2.50;;;21.60;89.00;;;;;;5045058;28;20025;-53
2022/09/10 13:51:16;;;;;;;3.05;1.95;;;21.50;90.00;;;;;;5029487;28;20029;-55
2022/09/10 13:54:30;;;;;;;3.17;2.40;;;21.50;90.10;;;;;;5051338;28;20047;-54
2022/09/10 13:57:39;;;;;;;3.20;2.10;;;21.50;90.30;;;;;;5037682;28;20086;-54
2022/09/10 14:00:52;;;;;;;2.22;2.00;;;21.20;90.70;;;;;;5031638;28;20030;-52
2022/09/10 14:03:39;;;;;;;2.75;2.38;;;21.30;90.60;;;;;;5034713;28;20564;-54
2022/09/10 14:06:26;;;;;;;5.80;2.65;;;21.20;91.20;;;;;;5044836;28;20041;-55
2022/09/10 14:09:12;;;;;;;3.17;2.47;;;20.80;92.30;;;;;;5064998;28;20037;-52
2022/09/10 14:12:01;;;;;;;3.38;2.45;;;20.70;92.80;;;;;;5069964;28;20101;-53
2022/09/10 14:14:52;;;;;;;2.67;2.30;;;20.70;93.20;;;;;;5070922;28;20511;-52
2022/09/10 14:17:49;;;;;;;3.50;2.40;;;20.60;93.30;;;;;;5071841;28;20033;-55
2022/09/10 14:20:36;;;;;;;5.20;2.72;;;20.50;93.80;;;;;;5057372;28;20032;-53
2022/09/10 14:23:22;;;;;;;3.42;2.40;;;20.40;94.00;;;;;;5070081;28;20020;-52
2022/09/10 14:26:16;;;;;;;3.90;2.78;;;20.30;94.50;;;;;;5064994;28;20298;-53
2022/09/10 14:29:23;;;;;;;3.93;2.50;;;20.30;94.80;;;;;;5050725;28;20402;-55
2022/09/10 14:32:18;;;;;;;4.47;2.63;;;20.30;95.50;;;;;;5056572;28;20097;-55
2022/09/10 14:35:41;;;;;;;4.13;2.60;;;20.40;95.10;;;;;;5050174;28;20033;-53
2022/09/10 14:38:35;;;;;;;5.00;2.50;;;20.50;95.10;;;;;;5049310;28;20132;-55
2022/09/10 14:41:23;;;;;;;4.82;2.63;;;20.30;95.50;;;;;;5047703;28;20457;-52
2022/09/10 14:44:21;;;;;;;3.15;2.60;;;20.30;95.60;;;;;;5061817;28;20017;-55
2022/09/10 14:47:07;;;;;;;3.58;2.65;;;20.30;95.20;;;;;;5069789;28;20048;-53
2022/09/10 14:49:53;;;;;;;3.50;2.58;;;20.40;95.30;;;;;;5069442;28;20024;-55
2022/09/10 14:52:39;;;;;;;2.67;2.30;;;20.50;94.60;;;;;;5069485;28;20082;-53
2022/09/10 14:55:27;;;;;;;2.63;2.42;;;20.50;94.20;;;;;;5069391;28;20074;-53
2022/09/10 14:58:13;;;;;;;3.88;2.72;;;20.60;94.70;;;;;;5059327;28;20021;-51
2022/09/10 15:00:59;;;;;;;2.95;2.33;;;20.80;94.50;;;;;;5050996;28;20400;-52
2022/09/10 15:03:45;;;;;;;3.20;2.40;;;20.80;93.80;;;;;;5049688;28;20112;-55
2022/09/10 15:06:31;;;;;;;5.72;2.47;;;20.80;93.90;;;;;;5049932;28;20108;-55
2022/09/10 15:09:18;;;;;;;4.18;2.50;;;20.80;93.50;;;;;;5049917;28;20470;-53
2022/09/10 15:12:25;;;;;;;2.85;2.40;;;20.70;93.60;;;;;;5048502;28;20029;-56
2022/09/10 15:15:15;;;;;;;4.85;2.67;;;20.60;93.70;;;;;;5049068;28;20488;-54
2022/09/10 15:18:01;;;;;;;3.30;2.30;;;20.70;93.50;;;;;;5049550;28;20103;-54
2022/09/10 15:20:49;;;;;;;2.88;2.28;;;20.80;93.40;;;;;;5049069;28;20037;-52
2022/09/10 15:23:35;;;;;;;2.75;2.40;;;20.90;93.20;;;;;;5049249;28;20026;-52
2022/09/10 15:26:21;;;;;;;2.83;2.35;;;20.90;93.20;;;;;;5049326;28;20053;-54
2022/09/10 15:29:07;;;;;;;4.25;2.47;;;21.00;93.20;;;;;;5048655;28;20025;-56
2022/09/10 15:31:58;;;;;;;3.75;2.22;;;21.00;93.10;;;;;;5048309;28;20029;-52
2022/09/10 15:34:44;;;;;;;5.13;2.42;;;21.00;92.80;;;;;;5048512;28;20031;-53
2022/09/10 15:37:30;;;;;;;3.95;2.33;;;21.00;92.90;;;;;;4982856;28;1126999;-52
2022/09/10 15:40:16;;;;;;;4.35;2.70;;;20.90;92.90;;;;;;5035105;28;20075;-56
2022/09/10 15:43:02;;;;;;;4.50;2.42;;;21.00;93.10;;;;;;5049068;28;20028;-51
2022/09/10 15:45:48;;;;;;;2.63;2.20;;;20.90;92.90;;;;;;5050423;28;20026;-57
2022/09/10 15:48:35;;;;;;;2.38;2.03;;;20.90;92.50;;;;;;5053718;28;20036;-57
2022/09/10 15:51:22;;;;;;;3.83;2.40;;;21.00;91.70;;;;;;5057218;28;20025;-53
2022/09/10 15:54:10;;;;;;;5.35;3.13;;;20.90;91.90;;;;;;5059067;28;20025;-53
2022/09/10 15:56:58;;;;;;;4.20;2.70;;;20.90;92.00;;;;;;5054511;28;20021;-52
2022/09/10 15:59:43;;;;;;;2.95;2.20;;;21.00;91.80;;;;;;5053177;28;20029;-55
2022/09/10 16:02:29;;;;;;;3.50;2.45;;;21.00;91.60;;;;;;5053882;28;20029;-52
2022/09/10 16:05:16;;;;;;;3.85;2.63;;;21.00;91.90;;;;;;5054453;28;20057;-55
2022/09/10 16:08:02;;;;;;;3.97;2.28;;;21.00;91.90;;;;;;5040139;28;20087;-55
2022/09/10 16:10:48;;;;;;;4.20;2.40;;;21.00;92.10;;;;;;5053547;28;20104;-53
2022/09/10 16:13:37;;;;;;;3.17;2.28;;;21.00;92.50;;;;;;5053777;28;20029;-54
2022/09/10 16:16:27;;;;;;;4.75;2.30;;;21.00;92.50;;;;;;5053934;28;20497;-53
2022/09/10 16:19:13;;;;;;;5.30;2.58;;;20.80;92.60;;;;;;5053600;28;20409;-55
2022/09/10 16:21:59;;;;;;;4.18;2.80;;;20.70;93.00;;;;;;5037900;28;20022;-55
2022/09/10 16:24:45;;;;;;;5.03;2.50;;;20.70;92.90;;;;;;5053636;28;20032;-52
2022/09/10 16:27:31;;;;;;;6.20;2.33;;;20.60;92.90;;;;;;5053132;28;20019;-56
2022/09/10 16:30:17;;;;;;;3.63;3.00;;;20.60;92.90;;;;;;5038882;28;20078;-54
2022/09/10 16:33:03;;;;;;;2.25;2.00;;;20.60;93.10;;;;;;5036312;28;20487;-54
2022/09/10 16:35:49;;;;;;;3.03;2.38;;;20.50;91.80;;;;;;5038375;28;20039;-59
2022/09/10 16:38:35;;;;;;;2.85;2.03;;;20.30;91.50;;;;;;5052687;28;20566;-55
2022/09/10 16:41:24;;;;;;;3.03;2.10;;;20.20;91.40;;;;;;5038753;28;20043;-54
2022/09/10 16:44:11;;;;;;;5.78;2.67;;;19.90;91.60;;;;;;5053008;28;20025;-52
2022/09/10 16:46:58;;;;;;;2.42;2.00;;;19.90;91.90;;;;;;5038583;28;20021;-52
2022/09/10 16:49:44;;;;;;;2.38;1.85;;;20.00;91.70;;;;;;5053132;28;20025;-53
2022/09/10 16:52:30;;;;;;;1.90;1.80;;;20.00;92.10;;;;;;5039310;28;20037;-53
2022/09/10 16:55:16;;;;;;;2.92;2.20;;;19.80;92.90;;;;;;5039236;28;20082;-51
2022/09/10 16:58:02;;;;;;;2.58;2.08;;;19.70;93.60;;;;;;5053264;28;20029;-55
2022/09/10 17:00:50;;;;;;;2.45;2.13;;;19.70;94.00;;;;;;5052254;28;20400;-51
2022/09/10 17:03:41;;;;;;;3.03;2.20;;;19.60;94.40;;;;;;5052348;28;20402;-54
2022/09/10 17:06:28;;;;;;;4.43;2.72;;;19.50;94.80;;;;;;5052927;28;20025;-52
2022/09/10 17:09:14;;;;;;;3.10;2.20;;;19.40;95.10;;;;;;5052268;28;20067;-52
2022/09/10 17:12:00;;;;;;;3.45;2.63;;;19.30;95.30;;;;;;5051451;28;20037;-52
2022/09/10 17:14:46;;;;;;;3.97;2.53;;;19.10;95.70;;;;;;5052050;28;20393;-52
2022/09/10 17:17:32;;;;;;;3.05;2.72;;;19.10;96.00;;;;;;5052087;28;20520;-53
2022/09/10 17:20:18;;;;;;;3.30;2.50;;;18.90;96.20;;;;;;5051563;28;20052;-55
2022/09/10 17:23:05;;;;;;;6.55;2.90;;;18.90;96.40;;;;;;5051124;28;20025;-51
2022/09/10 17:25:51;;;;;;;5.30;2.65;;;18.90;96.50;;;;;;5051604;28;20082;-53
2022/09/10 17:28:39;;;;;;;3.97;2.40;;;18.90;96.60;;;;;;5032723;28;20075;-53
2022/09/10 17:31:26;;;;;;;3.15;2.85;;;18.90;96.60;;;;;;5037872;28;20028;-54
2022/09/10 17:34:13;;;;;;;3.92;2.67;;;18.90;96.60;;;;;;5054263;28;20437;-53
2022/09/10 17:37:00;;;;;;;4.13;3.20;;;18.90;96.70;;;;;;5057556;28;20081;-51
2022/09/10 17:39:46;;;;;;;4.57;2.80;;;18.90;96.80;;;;;;5055891;28;20478;-50
2022/09/10 17:42:32;;;;;;;5.00;3.35;;;18.90;96.60;;;;;;5052254;28;20040;-50
2022/09/10 17:45:18;;;;;;;5.07;3.65;;;19.10;96.60;;;;;;5051644;28;20444;-52
2022/09/10 17:48:04;;;;;;;5.80;3.47;;;19.10;96.60;;;;;;5038615;28;20554;-52
2022/09/10 17:50:50;;;;;;;4.78;3.40;;;19.10;96.60;;;;;;5037739;28;20502;-51
2022/09/10 17:53:36;;;;;;;6.55;2.60;;;19.20;96.60;;;;;;5051379;28;20040;-53
2022/09/10 17:56:24;;;;;;;4.93;3.10;;;19.20;96.40;;;;;;5036258;28;20033;-53
2022/09/10 17:59:13;;;;;;;3.67;2.60;;;19.10;96.50;;;;;;5052545;28;20028;-50
2022/09/10 18:01:59;;;;;;;6.97;2.70;;;19.00;96.70;;;;;;5036425;28;20025;-50
2022/09/10 18:04:48;;;;;;;4.68;2.75;;;18.90;96.80;;;;;;5051970;28;20056;-51
2022/09/10 18:07:35;;;;;;;3.72;3.30;;;18.80;96.80;;;;;;5051868;28;20528;-52
2022/09/10 18:10:21;;;;;;;3.58;3.00;;;18.80;96.90;;;;;;5051185;28;20041;-58
2022/09/10 18:13:08;;;;;;;5.13;2.53;;;18.80;96.90;;;;;;5035809;28;20037;-52
2022/09/10 18:15:54;;;;;;;3.35;2.47;;;18.80;96.80;;;;;;5050931;28;20135;-52
2022/09/10 18:18:42;;;;;;;5.10;2.80;;;18.80;97.00;;;;;;5051152;28;20112;-52
2022/09/10 18:21:30;;;;;;;3.55;2.60;;;18.80;97.00;;;;;;5050769;28;20048;-56
2022/09/10 18:24:22;;;;;;;3.47;2.53;;;18.80;97.10;;;;;;5051362;28;20505;-53
2022/09/10 18:27:08;;;;;;;5.63;4.38;;;18.80;97.20;;;;;;5051278;28;20565;-54
2022/09/10 18:29:55;;;;;;;5.13;3.75;;;18.80;97.30;;;;;;5050586;28;20040;-51
2022/09/10 18:32:41;;;;;;;3.00;2.50;;;18.80;97.40;;;;;;5049929;28;20487;-54
2022/09/10 18:35:26;;;;;;;2.90;2.50;;;18.80;97.30;;;;;;5063105;28;20111;-54
2022/09/10 18:38:12;;;;;;;3.13;2.50;;;18.80;97.50;;;;;;5070388;28;20032;-54
2022/09/10 18:41:01;;;;;;;3.97;2.53;;;18.70;97.70;;;;;;5069759;28;20103;-55
2022/09/10 18:43:48;;;;;;;3.28;2.80;;;18.60;97.90;;;;;;5070304;28;20296;-52
2022/09/10 18:46:35;;;;;;;3.60;3.22;;;18.50;98.30;;;;;;5070133;28;20029;-53
2022/09/10 18:49:23;;;;;;;5.88;3.63;;;18.40;98.50;;;;;;5070297;28;20039;-53
2022/09/10 18:52:11;;;;;;;4.15;3.17;;;18.30;98.90;;;;;;5069716;28;20025;-52
2022/09/10 18:54:57;;;;;;;7.20;4.10;;;18.30;98.90;;;;;;5069354;28;20024;-55
2022/09/10 18:57:46;;;;;;;3.72;3.28;;;18.10;99.50;;;;;;5070294;28;20024;-53
2022/09/10 19:00:33;;;;;;;4.55;3.78;;;18.20;99.30;;;;;;5016140;28;20571;-54
2022/09/10 19:03:18;;;;;;;3.70;3.35;;;18.20;99.60;;;;;;5030009;28;20028;-53
2022/09/10 19:06:09;;;;;;;4.32;3.92;;;18.10;99.80;;;;;;5030716;28;20041;-53
2022/09/10 19:09:03;;;;;;;6.75;3.70;;;18.10;99.90;;;;;;5029884;28;20083;-52
2022/09/10 19:11:51;;;;;;;6.15;3.90;;;18.00;99.90;;;;;;5029555;28;20398;-51
2022/09/10 19:14:37;;;;;;;5.50;3.95;;;17.90;99.90;;;;;;5036081;28;20070;-53
2022/09/10 19:17:23;;;;;;;4.88;3.95;;;17.90;99.90;;;;;;5049669;28;20115;-53
2022/09/10 19:20:09;;;;;;;6.25;4.53;;;17.90;99.90;;;;;;5045987;28;20029;-51
2022/09/10 19:22:55;;;;;;;7.97;5.63;;;17.80;99.90;;;;;;5045375;28;20024;-53
2022/09/10 19:25:55;;;;;;;9.82;6.20;;;17.80;99.90;;;;;;5020845;28;20028;-51
2022/09/10 19:28:42;;;;;;;5.72;5.20;;;17.70;99.90;;;;;;5031041;28;20024;-50
2022/09/10 19:31:30;;;;;;;7.63;5.40;;;17.60;99.90;;;;;;5030078;28;20103;-62
2022/09/10 19:34:18;;;;;;;5.95;4.80;;;17.60;99.90;;;;;;5038154;28;20052;-50
2022/09/10 19:37:05;;;;;;;6.60;4.75;;;17.60;99.90;;;;;;5047789;28;20114;-55
2022/09/10 19:39:50;;;;;;;5.50;4.65;;;17.60;99.90;;;;;;5017936;28;20506;-54
2022/09/10 19:42:36;;;;;;;7.65;6.47;;;17.50;99.90;;;;;;5038406;28;20031;-53
2022/09/10 19:45:22;;;;;;;7.00;4.95;;;17.50;99.90;;;;;;5049301;28;20024;-51
2022/09/10 19:48:08;;;;;;;6.65;4.85;;;17.40;99.90;;;;;;5049650;28;20022;-52
2022/09/10 19:50:54;;;;;;;6.28;4.55;;;17.40;99.90;;;;;;5046130;28;20038;-50
2022/09/10 19:53:41;;;;;;;4.95;4.32;;;17.40;99.90;;;;;;5030080;28;20457;-56
2022/09/10 19:56:32;;;;;;;6.25;4.07;;;17.30;99.90;;;;;;5031482;28;20033;-51
2022/09/10 19:59:18;;;;;;;6.57;4.47;;;17.30;99.90;;;;;;5035319;28;20025;-49
2022/09/10 20:02:04;;;;;;;5.85;4.88;;;17.30;99.90;;;;;;5049017;28;20071;-53
2022/09/10 20:04:50;;;;;;;4.93;3.88;;;17.30;99.90;;;;;;5050938;28;20036;-50
2022/09/10 20:07:35;;;;;;;6.25;3.80;;;17.30;99.90;;;;;;5035587;28;20021;-52
2022/09/10 20:10:21;;;;;;;5.65;4.20;;;17.30;99.90;;;;;;5056528;28;20528;-49
2022/09/10 20:13:07;;;;;;;5.30;4.07;;;17.30;99.90;;;;;;5068839;28;20033;-55
2022/09/10 20:15:53;;;;;;;4.20;3.53;;;17.20;99.90;;;;;;5069785;28;20024;-52
2022/09/10 20:18:39;;;;;;;4.10;3.45;;;17.10;99.90;;;;;;5047736;28;20033;-53
2022/09/10 20:21:30;;;;;;;4.93;3.78;;;17.10;99.90;;;;;;5049855;28;20029;-53
2022/09/10 20:24:16;;;;;;;5.70;3.72;;;17.10;99.90;;;;;;5029307;28;20029;-51
2022/09/10 20:27:02;;;;;;;7.45;4.93;;;17.10;99.90;;;;;;5040380;28;20032;-54
2022/09/10 20:29:48;;;;;;;4.32;3.50;;;17.10;99.90;;;;;;5050985;28;20428;-52
2022/09/10 20:32:34;;;;;;;5.25;3.80;;;17.20;99.90;;;;;;5046999;28;20038;-52
2022/09/10 20:35:21;;;;;;;4.72;3.85;;;17.20;99.90;;;;;;5040602;28;20021;-53
2022/09/10 20:38:07;;;;;;;6.15;3.80;;;17.20;99.90;;;;;;5026228;28;20037;-54
2022/09/10 20:40:53;;;;;;;4.47;3.67;;;17.10;99.90;;;;;;5051869;28;20094;-50
2022/09/10 20:43:39;;;;;;;5.18;3.50;;;17.10;99.90;;;;;;5059108;28;20048;-55
2022/09/10 20:46:27;;;;;;;4.35;3.63;;;17.10;99.90;;;;;;5072289;28;20484;-54
2022/09/10 20:49:15;;;;;;;4.55;3.70;;;17.10;99.90;;;;;;5074204;28;20112;-57
2022/09/10 20:52:01;;;;;;;5.68;3.75;;;17.10;99.90;;;;;;5072578;28;20023;-55
2022/09/10 20:54:48;;;;;;;4.72;4.15;;;17.10;99.90;;;;;;5032951;28;20037;-48
2022/09/10 20:57:34;;;;;;;6.03;4.50;;;17.10;99.90;;;;;;5033448;28;20034;-49
2022/09/10 21:00:20;;;;;;;6.85;4.22;;;17.10;99.90;;;;;;5044494;28;20017;-52
2022/09/10 21:03:08;;;;;;;4.93;4.38;;;17.10;99.90;;;;;;5052045;28;20021;-50
2022/09/10 21:05:54;;;;;;;5.18;3.78;;;17.10;99.90;;;;;;5052845;28;20501;-49
2022/09/10 21:08:41;;;;;;;4.35;3.67;;;17.10;99.90;;;;;;5052538;28;20037;-51
2022/09/10 21:11:29;;;;;;;4.40;4.00;;;17.10;99.90;;;;;;5052243;28;20053;-52
2022/09/10 21:14:17;;;;;;;6.07;3.97;;;17.10;99.90;;;;;;5052712;28;20021;-51
2022/09/10 21:17:03;;;;;;;4.72;4.20;;;17.10;99.90;;;;;;5053583;28;20109;-50
2022/09/10 21:19:49;;;;;;;7.22;5.10;;;17.10;99.90;;;;;;5053325;28;20029;-50
2022/09/10 21:22:35;;;;;;;6.68;5.00;;;17.10;99.90;;;;;;5053468;28;20037;-52
2022/09/10 21:25:21;;;;;;;5.10;4.35;;;17.00;99.90;;;;;;5056400;28;20113;-58
2022/09/10 21:28:07;;;;;;;7.93;4.30;;;16.90;99.90;;;;;;5032421;28;20021;-51
2022/09/10 21:30:53;;;;;;;4.70;4.20;;;16.90;99.90;;;;;;5058148;28;20099;-51
2022/09/10 21:33:41;;;;;;;5.13;4.25;;;16.80;99.90;;;;;;5054354;28;20560;-54
2022/09/10 21:36:28;;;;;;;6.05;5.30;;;16.80;99.90;;;;;;5052263;28;20021;-51
2022/09/10 21:39:16;;;;;;;5.70;4.25;;;16.90;99.90;;;;;;5055515;28;20032;-52
2022/09/10 21:42:03;;;;;;;4.90;4.40;;;17.00;99.90;;;;;;5053701;28;20393;-53
2022/09/10 21:44:49;;;;;;;5.35;3.97;;;17.00;99.90;;;;;;5055104;28;20083;-51
2022/09/10 21:47:35;;;;;;;5.85;4.75;;;17.10;99.90;;;;;;5038743;28;20412;-49
2022/09/10 21:50:21;;;;;;;5.75;4.50;;;17.00;99.90;;;;;;5057681;28;20029;-49
2022/09/10 21:53:09;;;;;;;4.80;4.10;;;16.90;99.90;;;;;;5058163;28;20075;-50
2022/09/10 21:55:57;;;;;;;6.22;4.65;;;16.90;99.90;;;;;;5054855;28;20033;-50
2022/09/10 21:58:44;;;;;;;4.40;3.80;;;16.90;99.90;;;;;;5055079;28;20037;-55
2022/09/10 22:01:31;;;;;;;5.32;4.35;;;16.90;99.90;;;;;;5051110;28;20100;-52
2022/09/10 22:04:17;;;;;;;5.38;4.05;;;16.90;99.90;;;;;;5051643;28;20053;-53
2022/09/10 22:07:03;;;;;;;5.63;4.65;;;16.90;99.90;;;;;;5051182;28;20524;-51
2022/09/10 22:09:49;;;;;;;6.95;3.92;;;16.90;99.90;;;;;;5052623;28;20133;-52
2022/09/10 22:12:36;;;;;;;6.38;4.47;;;16.90;99.90;;;;;;5051801;28;20029;-51
2022/09/10 22:15:22;;;;;;;5.75;4.97;;;16.80;99.90;;;;;;5038135;28;20497;-51
2022/09/10 22:18:08;;;;;;;5.80;5.20;;;16.80;99.90;;;;;;5053504;28;20037;-49
2022/09/10 22:21:02;;;;;;;6.80;5.32;;;16.70;99.90;;;;;;5053032;28;20025;-48
2022/09/10 22:23:50;;;;;;;6.43;4.90;;;16.70;99.90;;;;;;5054430;28;20095;-49
2022/09/10 22:26:41;;;;;;;6.18;4.97;;;16.60;99.90;;;;;;5055049;28;20452;-51
2022/09/10 22:29:28;;;;;;;5.95;4.90;;;16.60;99.90;;;;;;5040976;28;20064;-48
2022/09/10 22:32:14;;;;;;;5.50;4.90;;;16.60;99.90;;;;;;5052206;28;20025;-48
2022/09/10 22:35:00;;;;;;;6.10;5.30;;;16.70;99.90;;;;;;5053652;28;20205;-51
2022/09/10 22:37:46;;;;;;;7.85;5.05;;;16.60;99.90;;;;;;5051750;28;20044;-48
2022/09/10 22:40:32;;;;;;;6.35;5.50;;;16.60;99.90;;;;;;5055699;28;20027;-49
2022/09/10 22:43:18;;;;;;;6.70;5.35;;;16.60;99.90;;;;;;5051897;28;20435;-50
2022/09/10 22:46:05;;;;;;;7.32;5.55;;;16.60;99.90;;;;;;5039558;28;20436;-50
2022/09/10 22:48:52;;;;;;;7.65;5.15;;;16.50;99.90;;;;;;5053503;28;20021;-51
2022/09/10 22:51:42;;;;;;;6.82;5.88;;;16.50;99.90;;;;;;5037705;28;20052;-49
2022/09/10 22:54:28;;;;;;;8.57;5.65;;;16.40;99.90;;;;;;5049589;28;20033;-51
2022/09/10 22:57:14;;;;;;;6.70;5.95;;;16.30;99.90;;;;;;5046654;28;20021;-52
2022/09/10 23:00:01;;;;;;;8.68;6.65;;;16.20;99.90;;;;;;5032603;28;20079;-49
2022/09/10 23:02:47;;;;;;;8.32;6.88;;;16.20;99.90;;;;;;5043967;28;20021;-49
2022/09/10 23:05:34;;;;;;;9.05;6.50;;;16.20;99.90;;;;;;5047166;28;20021;-50
2022/09/10 23:08:23;;;;;;;8.80;5.90;;;16.30;99.90;;;;;;5046192;28;20029;-53
2022/09/10 23:11:21;;;;;;;7.90;6.50;;;16.40;99.90;;;;;;5042493;28;20535;-52
2022/09/10 23:14:11;;;;;;;8.80;6.45;;;16.40;99.90;;;;;;5039178;28;20059;-54
2022/09/10 23:16:57;;;;;;;7.03;6.32;;;16.30;99.90;;;;;;5047994;28;20029;-50
2022/09/10 23:19:43;;;;;;;8.93;6.30;;;16.40;99.90;;;;;;5042845;28;20435;-50
2022/09/10 23:22:29;;;;;;;6.97;6.22;;;16.30;99.90;;;;;;5044998;28;20741;-53
2022/09/10 23:25:17;;;;;;;8.20;7.40;;;16.10;99.90;;;;;;5048592;28;20164;-52
2022/09/10 23:28:05;;;;;;;10.13;7.45;;;15.90;99.90;;;;;;5048068;28;20033;-51
2022/09/10 23:30:52;;;;;;;8.38;7.47;;;15.90;99.90;;;;;;5048765;28;20032;-54
2022/09/10 23:33:42;;;;;;;8.50;6.80;;;15.80;99.90;;;;;;5023190;28;20489;-50
2022/09/10 23:36:34;;;;;;;8.15;6.90;;;15.90;99.90;;;;;;5042933;28;20055;-51
2022/09/10 23:39:22;;;;;;;9.35;7.35;;;16.00;99.90;;;;;;5034919;28;20025;-49
2022/09/10 23:42:08;;;;;;;7.78;6.50;;;16.00;99.90;;;;;;5048803;28;20048;-51
2022/09/10 23:44:54;;;;;;;7.13;6.43;;;16.10;99.90;;;;;;5035148;28;20025;-52
2022/09/10 23:47:40;;;;;;;6.75;6.15;;;16.10;99.90;;;;;;5047280;28;20025;-50
2022/09/10 23:50:26;;;;;;;7.15;6.43;;;16.10;99.90;;;;;;5044500;28;20505;-53
2022/09/10 23:53:12;;;;;;;9.35;6.80;;;16.10;99.90;;;;;;5039448;28;20025;-55
2022/09/10 23:55:59;;;;;;;8.73;7.93;;;16.10;99.90;;;;;;5025934;28;20496;-53
2022/09/10 23:58:46;;;;;;;10.38;7.45;;;16.10;99.90;;;;;;5042511;28;20037;-50
